Time;durP1;ratioP1;P1;durP2;ratioP2;P2;SDS_P1;SDS_P2;PMS_P1;PMS_P2;Temp;Humidity;BMP_temperature;BMP_pressure;BME280_temperature;BME280_humidity;BME280_pressure;Samples;Min_cycle;Max_cycle;Signal;HPM_P1;HPM_P2
2023/01/07 00:02:38;;;;;;;6.37;3.90;;;;;;;9.17;100.00;101564.38;4920003;29;20143;-95
2023/01/07 00:05:04;;;;;;;6.28;3.65;;;;;;;9.15;100.00;101552.25;4919677;29;20032;-95
2023/01/07 00:07:53;;;;;;;6.30;3.80;;;;;;;9.20;100.00;101551.41;4919866;29;20377;-94
2023/01/07 00:13:40;;;;;;;8.00;4.60;;;;;;;9.15;100.00;101552.25;4919975;29;20120;-95
2023/01/07 00:16:11;;;;;;;7.63;3.97;;;;;;;9.12;100.00;101540.16;4919187;29;20040;-94
2023/01/07 00:18:36;;;;;;;7.13;4.40;;;;;;;9.15;100.00;101547.94;4919360;29;20087;-95
2023/01/07 00:23:44;;;;;;;8.18;4.30;;;;;;;9.12;100.00;101542.75;4960710;23;20048;-94
2023/01/07 00:26:12;;;;;;;7.82;4.57;;;;;;;9.14;100.00;101541.03;4996936;23;20195;-93
2023/01/07 00:28:40;;;;;;;8.95;4.85;;;;;;;9.16;100.00;101544.50;4919648;29;20074;-94
2023/01/07 00:31:09;;;;;;;8.55;4.22;;;;;;;9.16;100.00;101539.31;4919031;29;20028;-95
2023/01/07 00:33:34;;;;;;;7.63;4.57;;;;;;;9.16;100.00;101534.16;4919747;29;20030;-95
2023/01/07 00:36:01;;;;;;;9.03;4.90;;;;;;;9.14;100.00;101533.28;4919501;29;20119;-94
2023/01/07 00:38:27;;;;;;;8.20;4.60;;;;;;;9.12;100.00;101528.06;4926576;23;20091;-94
2023/01/07 00:40:55;;;;;;;9.47;5.20;;;;;;;9.18;100.00;101522.03;4934998;23;20139;-94
2023/01/07 00:43:20;;;;;;;9.00;4.72;;;;;;;9.11;100.00;101522.91;4917956;29;20039;-94
2023/01/07 00:46:36;;;;;;;8.15;4.40;;;;;;;9.10;100.00;101521.16;4889011;23;1120014;-94
2023/01/07 00:49:02;;;;;;;8.65;4.60;;;;;;;9.08;100.00;101517.72;4937845;29;20048;-95
2023/01/07 00:51:27;;;;;;;7.60;4.30;;;;;;;9.11;100.00;101513.41;4938112;29;20527;-95
2023/01/07 00:53:53;;;;;;;8.93;4.83;;;;;;;9.03;100.00;101515.13;4938107;29;20027;-94
2023/01/07 00:56:18;;;;;;;9.30;4.63;;;;;;;9.03;100.00;101504.75;4938019;29;20125;-94
2023/01/07 00:59:07;;;;;;;9.93;4.77;;;;;;;9.01;100.00;101509.06;4938240;29;20151;-95
2023/01/07 01:01:45;;;;;;;7.50;4.38;;;;;;;8.97;100.00;101499.59;4938529;29;20039;-95
2023/01/07 01:04:19;;;;;;;7.03;4.22;;;;;;;8.96;100.00;101497.84;4937530;29;20028;-93
2023/01/07 01:06:48;;;;;;;5.70;3.88;;;;;;;8.95;100.00;101494.38;4938075;29;20035;-95
2023/01/07 01:09:32;;;;;;;8.15;4.30;;;;;;;8.96;100.00;101496.13;4937829;29;20046;-94
2023/01/07 01:11:57;;;;;;;8.82;4.40;;;;;;;9.00;100.00;101491.81;4937758;29;20028;-95
2023/01/07 01:14:25;;;;;;;8.60;4.20;;;;;;;8.89;100.00;101481.44;4937648;29;20041;-95
2023/01/07 01:16:50;;;;;;;8.80;4.50;;;;;;;8.87;100.00;101480.56;4938013;29;20028;-95
2023/01/07 01:19:30;;;;;;;9.17;4.67;;;;;;;8.84;100.00;101477.97;4937413;29;20028;-94
2023/01/07 01:21:56;;;;;;;8.65;5.03;;;;;;;8.83;100.00;101475.38;4937324;29;20031;-94
2023/01/07 01:24:22;;;;;;;7.47;4.10;;;;;;;8.81;100.00;101470.22;4937621;29;20027;-95
2023/01/07 01:26:47;;;;;;;9.50;5.00;;;;;;;8.89;100.00;101472.81;4937528;29;20063;-94
2023/01/07 01:29:13;;;;;;;8.93;4.90;;;;;;;8.83;100.00;101468.50;4937720;29;20062;-95
2023/01/07 01:32:00;;;;;;;6.93;4.20;;;;;;;8.84;100.00;101472.78;4937287;29;20031;-95
2023/01/07 01:34:26;;;;;;;7.82;4.32;;;;;;;8.83;100.00;101473.69;4955964;28;20071;-95
2023/01/07 01:36:51;;;;;;;8.43;4.50;;;;;;;8.79;100.00;101474.53;4938709;29;20028;-95
2023/01/07 01:39:19;;;;;;;10.33;5.00;;;;;;;8.83;100.00;101467.63;4938600;29;20492;-95
2023/01/07 01:41:45;;;;;;;8.65;4.50;;;;;;;8.79;100.00;101467.59;4938250;29;20499;-95
2023/01/07 01:44:38;;;;;;;6.88;4.13;;;;;;;8.83;100.00;101470.22;4938726;29;20031;-94
2023/01/07 01:50:31;;;;;;;7.22;4.00;;;;;;;8.79;100.00;101477.09;4936902;29;20043;-94
2023/01/07 01:53:28;;;;;;;5.68;3.65;;;;;;;8.76;100.00;101472.78;4937433;29;20031;-95
2023/01/07 01:56:06;;;;;;;5.60;3.70;;;;;;;8.73;100.00;101472.78;4936840;29;20035;-94
2023/01/07 01:59:07;;;;;;;6.82;3.90;;;;;;;8.73;100.00;101465.00;4936976;29;20031;-94
2023/01/07 02:01:35;;;;;;;7.40;3.83;;;;;;;8.75;100.00;101472.78;4937357;29;20071;-94
2023/01/07 02:04:22;;;;;;;6.45;3.53;;;;;;;8.73;100.00;101474.47;4937200;29;20050;-94
2023/01/07 02:07:06;;;;;;;6.85;3.60;;;;;;;8.73;100.00;101467.59;4936978;29;20377;-94
2023/01/07 02:09:32;;;;;;;6.70;3.50;;;;;;;8.69;100.00;101475.34;4937041;29;20023;-95
2023/01/07 02:12:45;;;;;;;4.33;3.07;;;;;;;8.70;100.00;101475.34;4936741;29;20380;-94
2023/01/07 02:15:17;;;;;;;4.80;3.05;;;;;;;8.68;100.00;101478.81;4929422;29;20044;-94
2023/01/07 02:17:56;;;;;;;6.28;3.70;;;;;;;8.69;100.00;101467.59;4936618;29;20023;-94
2023/01/07 02:20:35;;;;;;;6.13;3.60;;;;;;;8.73;100.00;101467.59;4936968;29;20020;-95
2023/01/07 02:23:19;;;;;;;8.15;4.13;;;;;;;8.71;100.00;101466.72;4936399;29;20027;-94
2023/01/07 02:26:06;;;;;;;6.75;3.80;;;;;;;8.69;100.00;101465.84;4936429;29;20063;-93
2023/01/07 02:28:40;;;;;;;4.68;3.40;;;;;;;8.64;100.00;101467.59;4936806;29;20032;-94
2023/01/07 02:31:35;;;;;;;5.10;3.30;;;;;;;8.63;100.00;101471.03;4936903;29;20044;-94
2023/01/07 02:34:11;;;;;;;5.00;3.00;;;;;;;8.59;100.00;101467.56;4936452;29;20123;-94
2023/01/07 02:36:59;;;;;;;4.72;2.90;;;;;;;8.60;100.00;101471.00;4936776;29;20035;-95
2023/01/07 02:40:03;;;;;;;4.05;2.90;;;;;;;8.56;100.00;101470.16;4936696;29;20087;-94
2023/01/07 02:42:45;;;;;;;4.78;3.20;;;;;;;8.55;100.00;101470.16;4888000;29;20046;-94
2023/01/07 02:45:19;;;;;;;7.45;3.28;;;;;;;8.58;100.00;101470.13;4936198;29;20038;-94
2023/01/07 02:47:53;;;;;;;5.38;3.38;;;;;;;8.53;100.00;101453.75;4917525;29;20104;-94
2023/01/07 02:50:18;;;;;;;5.95;3.20;;;;;;;8.53;100.00;101457.19;4917184;29;20028;-94
2023/01/07 02:52:43;;;;;;;5.57;3.00;;;;;;;8.50;100.00;101452.88;4917858;29;20059;-94
2023/01/07 02:55:18;;;;;;;4.50;3.17;;;;;;;8.47;100.00;101451.97;4921389;29;20039;-94
2023/01/07 02:58:11;;;;;;;3.67;2.90;;;;;;;8.45;100.00;101449.38;4920972;29;20029;-94
2023/01/07 03:01:10;;;;;;;4.53;3.13;;;;;;;8.43;100.00;101450.22;4921674;29;20145;-95
2023/01/07 03:04:01;;;;;;;4.57;2.65;;;;;;;8.44;100.00;101447.66;4921170;29;20389;-95
2023/01/07 03:06:49;;;;;;;4.18;2.75;;;;;;;8.47;100.00;101439.03;4921147;29;20115;-94
2023/01/07 03:09:29;;;;;;;3.20;2.60;;;;;;;8.47;100.00;101439.94;4885569;29;20040;-95
2023/01/07 03:12:14;;;;;;;4.53;2.67;;;;;;;8.50;100.00;101424.41;4938014;29;20106;-95
2023/01/07 03:14:49;;;;;;;4.57;3.10;;;;;;;8.56;100.00;101428.75;4940071;29;20040;-95
2023/01/07 03:17:19;;;;;;;4.35;2.80;;;;;;;8.56;100.00;101422.69;4940208;29;20028;-94
2023/01/07 03:19:51;;;;;;;5.38;3.03;;;;;;;8.61;100.00;101427.00;4940335;29;20118;-95
2023/01/07 03:22:19;;;;;;;4.95;2.92;;;;;;;8.63;100.00;101419.28;4940047;29;20028;-95
2023/01/07 03:24:48;;;;;;;4.80;2.95;;;;;;;8.66;100.00;101421.88;4939546;29;20024;-95
2023/01/07 03:27:17;;;;;;;5.15;2.97;;;;;;;8.71;100.00;101416.72;4939467;29;20031;-94
2023/01/07 03:29:42;;;;;;;3.35;2.78;;;;;;;8.71;100.00;101412.38;4939763;29;20033;-95
2023/01/07 03:32:12;;;;;;;3.07;2.70;;;;;;;8.71;100.00;101411.53;4938699;29;20541;-95
2023/01/07 03:34:38;;;;;;;4.47;2.88;;;;;;;8.75;100.00;101414.13;4939872;29;20059;-95
2023/01/07 03:37:16;;;;;;;5.72;2.83;;;;;;;8.72;100.00;101396.00;4939453;29;20026;-95
2023/01/07 03:39:44;;;;;;;4.68;2.90;;;;;;;8.78;100.00;101400.31;4939729;29;20034;-95
2023/01/07 03:45:09;;;;;;;4.40;3.03;;;;;;;8.76;100.00;101400.31;4939484;29;20412;-96
2023/01/07 03:47:51;;;;;;;4.78;2.97;;;;;;;8.75;100.00;101393.41;4938976;29;20460;-95
2023/01/07 03:50:20;;;;;;;5.65;3.00;;;;;;;8.76;100.00;101389.97;4939584;29;20035;-94
2023/01/07 03:52:51;;;;;;;3.47;2.80;;;;;;;8.78;100.00;101390.81;4939366;29;20047;-95
2023/01/07 03:55:32;;;;;;;5.00;2.92;;;;;;;8.80;100.00;101383.06;4939244;29;20032;-95
2023/01/07 03:57:57;;;;;;;4.68;3.15;;;;;;;8.80;100.00;101381.34;4939024;29;20042;-95
2023/01/07 04:00:23;;;;;;;4.73;2.60;;;;;;;8.80;100.00;101385.66;4938902;29;20019;-95
2023/01/07 04:02:49;;;;;;;5.50;3.27;;;;;;;8.87;100.00;101389.13;4939245;29;20028;-95
2023/01/07 04:05:14;;;;;;;4.33;2.97;;;;;;;8.85;100.00;101383.91;4938236;29;20020;-95
2023/01/07 04:07:41;;;;;;;3.10;2.40;;;;;;;8.84;100.00;101376.16;4938982;29;20102;-95
2023/01/07 04:10:08;;;;;;;2.70;2.40;;;;;;;8.89;100.00;101366.69;4938591;29;20114;-95
2023/01/07 04:12:33;;;;;;;5.25;3.00;;;;;;;8.87;100.00;101371.00;4939367;29;20026;-95
2023/01/07 04:15:02;;;;;;;3.90;2.73;;;;;;;8.91;100.00;101365.81;4938978;29;20024;-95
2023/01/07 04:17:28;;;;;;;3.67;2.65;;;;;;;8.87;100.00;101356.31;4939129;29;20441;-95
2023/01/07 04:19:53;;;;;;;4.43;2.77;;;;;;;8.89;100.00;101362.38;4939103;29;20051;-96
2023/01/07 04:22:21;;;;;;;5.23;3.10;;;;;;;8.91;100.00;101357.19;4938610;29;20119;-95
2023/01/07 04:24:47;;;;;;;4.13;3.00;;;;;;;8.89;100.00;101345.97;4938977;29;20381;-94
2023/01/07 04:27:21;;;;;;;6.83;3.30;;;;;;;8.92;100.00;101344.25;4938056;29;20024;-94
2023/01/07 04:29:46;;;;;;;4.78;3.33;;;;;;;9.11;100.00;101329.56;4938773;29;20429;-95
2023/01/07 04:32:29;;;;;;;8.13;3.47;;;;;;;8.98;100.00;101335.63;4937938;29;20024;-95
2023/01/07 04:34:57;;;;;;;4.93;3.10;;;;;;;9.00;100.00;101336.50;4938227;29;20058;-94
2023/01/07 04:37:22;;;;;;;7.70;3.10;;;;;;;9.00;100.00;101333.00;4938532;29;20083;-95
2023/01/07 04:40:03;;;;;;;3.53;2.80;;;;;;;8.92;100.00;101328.72;4938183;29;20059;-95
2023/01/07 04:42:28;;;;;;;4.18;2.90;;;;;;;8.93;100.00;101324.38;4937998;29;20032;-95
2023/01/07 04:44:54;;;;;;;4.13;2.90;;;;;;;8.91;100.00;101336.47;4938026;29;20083;-95
2023/01/07 04:47:43;;;;;;;5.27;3.10;;;;;;;8.91;100.00;101315.75;4937520;29;20047;-95
2023/01/07 04:50:24;;;;;;;3.80;2.78;;;;;;;8.97;100.00;101313.19;4865245;29;20045;-95
2023/01/07 04:52:49;;;;;;;6.68;3.08;;;;;;;8.85;100.00;101324.38;4938230;29;20054;-95
2023/01/07 04:55:15;;;;;;;4.60;2.90;;;;;;;8.81;100.00;101314.91;4937717;29;20051;-94
2023/01/07 04:57:40;;;;;;;4.23;2.90;;;;;;;8.78;100.00;101317.50;4938297;29;20079;-96
2023/01/07 05:00:25;;;;;;;5.13;2.63;;;;;;;8.91;100.00;101311.47;4937661;29;20024;-95
2023/01/07 05:03:08;;;;;;;4.43;2.80;;;;;;;8.77;100.00;101306.31;4937837;29;20024;-96
2023/01/07 05:05:34;;;;;;;5.15;2.92;;;;;;;8.74;100.00;101308.88;4938141;29;20032;-94
2023/01/07 05:08:24;;;;;;;3.70;2.50;;;;;;;8.73;100.00;101307.16;4937546;29;20445;-95
2023/01/07 05:10:50;;;;;;;2.75;2.30;;;;;;;8.81;100.00;101309.75;4923352;23;20082;-94
2023/01/07 05:13:17;;;;;;;3.03;2.50;;;;;;;8.76;100.00;101317.50;4899607;29;20033;-94
2023/01/07 05:15:42;;;;;;;4.03;2.58;;;;;;;8.76;100.00;101304.56;4900147;29;20482;-94
2023/01/07 05:18:07;;;;;;;4.57;2.60;;;;;;;8.75;100.00;101300.25;4899652;29;20030;-95
2023/01/07 05:20:33;;;;;;;4.10;2.65;;;;;;;8.78;100.00;101302.81;4882428;29;20461;-94
2023/01/07 05:22:58;;;;;;;3.67;2.63;;;;;;;8.78;100.00;101299.38;4899719;29;20104;-94
2023/01/07 05:25:24;;;;;;;3.50;2.70;;;;;;;8.76;100.00;101296.81;4899874;29;20028;-95
2023/01/07 05:27:49;;;;;;;4.23;2.83;;;;;;;8.75;100.00;101295.09;4899544;29;20020;-94
2023/01/07 05:30:14;;;;;;;4.33;2.60;;;;;;;8.73;100.00;101293.34;4899557;29;20017;-95
2023/01/07 05:32:40;;;;;;;3.17;2.50;;;;;;;8.79;100.00;101280.41;4899928;29;20486;-94
2023/01/07 05:35:11;;;;;;;4.23;2.50;;;;;;;8.71;100.00;101277.81;4899574;29;20031;-94
2023/01/07 05:37:37;;;;;;;2.63;2.30;;;;;;;8.71;100.00;101295.09;4899232;29;20020;-95
2023/01/07 05:40:06;;;;;;;2.80;2.33;;;;;;;8.69;100.00;101294.22;4899256;29;20108;-94
2023/01/07 05:42:31;;;;;;;3.08;2.53;;;;;;;8.73;100.00;101288.16;4899742;29;20031;-95
2023/01/07 05:45:15;;;;;;;5.03;2.53;;;;;;;8.69;100.00;101292.47;4899028;29;20095;-94
2023/01/07 05:47:41;;;;;;;2.97;2.25;;;;;;;8.70;100.00;101291.63;4899178;29;20061;-95
2023/01/07 05:50:13;;;;;;;3.75;2.35;;;;;;;8.73;100.00;101281.28;4899114;29;20025;-94
2023/01/07 05:52:38;;;;;;;2.78;2.30;;;;;;;8.70;100.00;101280.41;4899190;29;20080;-94
2023/01/07 05:55:24;;;;;;;4.57;2.30;;;;;;;8.71;100.00;101283.00;4898926;29;20037;-96
2023/01/07 05:57:49;;;;;;;2.63;2.30;;;;;;;8.82;100.00;101272.66;4899379;29;20063;-94
2023/01/07 06:00:30;;;;;;;4.17;2.37;;;;;;;8.76;100.00;101270.94;4899145;29;20048;-94
2023/01/07 06:02:55;;;;;;;3.08;2.20;;;;;;;8.77;100.00;101271.78;4899136;29;20039;-94
2023/01/07 06:05:38;;;;;;;3.67;2.30;;;;;;;8.76;100.00;101260.56;4898330;29;20036;-94
2023/01/07 06:08:49;;;;;;;3.25;2.30;;;;;;;8.82;100.00;101270.06;4899132;29;20067;-94
2023/01/07 06:11:14;;;;;;;2.30;2.10;;;;;;;8.80;100.00;101267.44;4878612;29;20053;-94
2023/01/07 06:13:40;;;;;;;2.83;2.50;;;;;;;8.88;100.00;101261.44;4879749;29;20041;-94
2023/01/07 06:16:08;;;;;;;3.30;2.10;;;;;;;8.79;100.00;101247.59;4880218;29;20053;-95
2023/01/07 06:18:34;;;;;;;4.40;2.38;;;;;;;8.98;100.00;101249.31;4887042;29;20056;-93
2023/01/07 06:21:00;;;;;;;2.75;2.33;;;;;;;8.85;100.00;101245.88;4898721;29;20062;-93
2023/01/07 06:23:26;;;;;;;2.83;2.20;;;;;;;8.89;100.00;101242.44;4900450;29;20041;-93
2023/01/07 06:25:59;;;;;;;3.67;2.30;;;;;;;8.99;100.00;101241.56;4894852;29;20036;-93
2023/01/07 06:28:25;;;;;;;3.20;2.30;;;;;;;8.87;100.00;101239.84;4884346;29;20419;-94
2023/01/07 06:30:50;;;;;;;2.20;2.00;;;;;;;8.84;100.00;101241.56;4880630;29;20109;-94
2023/01/07 06:33:15;;;;;;;2.10;1.90;;;;;;;8.88;100.00;101235.53;4880219;29;20093;-94
2023/01/07 06:35:41;;;;;;;2.10;1.90;;;;;;;8.84;100.00;101228.63;4883703;29;20025;-94
2023/01/07 06:38:15;;;;;;;3.80;2.40;;;;;;;9.01;100.00;101226.00;4899930;29;20068;-94
2023/01/07 06:40:41;;;;;;;3.35;2.10;;;;;;;8.85;100.00;101226.03;4901236;29;20044;-95
2023/01/07 06:43:06;;;;;;;3.77;2.20;;;;;;;8.99;99.92;101226.03;4898798;29;20029;-94
2023/01/07 06:45:42;;;;;;;2.03;1.83;;;;;;;8.86;100.00;101227.75;4899172;29;20044;-94
2023/01/07 06:48:07;;;;;;;2.22;2.03;;;;;;;8.86;100.00;101221.72;4880679;29;20104;-94
2023/01/07 06:50:38;;;;;;;3.53;2.10;;;;;;;8.83;99.30;101219.16;4879827;29;20065;-95
2023/01/07 06:53:04;;;;;;;2.50;2.30;;;;;;;8.90;99.90;101224.31;4879997;29;20566;-94
2023/01/07 06:55:29;;;;;;;2.60;2.00;;;;;;;8.88;99.13;101212.25;4879986;29;20124;-94
2023/01/07 06:57:55;;;;;;;2.50;2.03;;;;;;;8.84;99.75;101211.38;4879887;29;20064;-94
2023/01/07 07:00:26;;;;;;;2.10;1.90;;;;;;;8.88;99.37;101212.25;4879219;29;20029;-94
2023/01/07 07:02:51;;;;;;;2.22;1.88;;;;;;;8.85;99.42;101212.25;4879884;29;20084;-96
2023/01/07 07:05:17;;;;;;;1.90;1.80;;;;;;;8.86;99.73;101216.56;4879431;29;20071;-95
2023/01/07 07:07:42;;;;;;;3.10;2.03;;;;;;;8.84;98.61;101213.94;4880321;29;20029;-95
2023/01/07 07:10:08;;;;;;;2.17;1.98;;;;;;;8.85;98.68;101205.31;4881785;29;20562;-92
2023/01/07 07:12:35;;;;;;;2.33;2.13;;;;;;;8.99;98.27;101201.84;4880113;29;20053;-91
2023/01/07 07:15:00;;;;;;;2.70;2.10;;;;;;;8.93;98.10;101195.84;4879883;29;20037;-91
2023/01/07 07:17:25;;;;;;;2.17;1.90;;;;;;;8.89;98.47;101186.34;4879671;29;20080;-92
2023/01/07 07:19:51;;;;;;;3.03;1.90;;;;;;;8.90;98.90;101189.78;4880098;29;20116;-92
2023/01/07 07:22:16;;;;;;;3.07;1.83;;;;;;;8.92;98.09;101188.06;4879490;29;20036;-90
2023/01/07 07:24:42;;;;;;;2.93;1.97;;;;;;;8.91;96.68;101186.34;4879841;29;20032;-90
2023/01/07 07:27:10;;;;;;;2.87;2.00;;;;;;;8.87;98.20;101189.81;4879681;29;20040;-90
2023/01/07 07:29:35;;;;;;;2.67;1.90;;;;;;;8.87;98.35;101192.41;4879000;29;20119;-91
2023/01/07 07:32:19;;;;;;;2.20;2.00;;;;;;;8.84;98.24;101193.25;4879231;29;20502;-90
2023/01/07 07:34:44;;;;;;;2.05;1.85;;;;;;;8.86;97.78;101193.25;4879088;29;20033;-90
2023/01/07 07:37:21;;;;;;;2.10;1.90;;;;;;;8.83;98.24;101185.50;4879174;29;20055;-90
2023/01/07 07:39:47;;;;;;;1.70;1.60;;;;;;;8.79;97.58;101184.66;4880087;29;20051;-90
2023/01/07 07:42:12;;;;;;;1.70;1.60;;;;;;;8.77;97.45;101176.03;4882705;29;20056;-90
2023/01/07 07:44:46;;;;;;;1.73;1.63;;;;;;;8.78;97.81;101176.00;4881101;29;20116;-90
2023/01/07 07:47:11;;;;;;;1.50;1.40;;;;;;;8.79;98.28;101177.72;4882277;29;20029;-90
2023/01/07 07:49:43;;;;;;;1.83;1.73;;;;;;;8.75;97.27;101175.16;4882993;29;20029;-89
2023/01/07 07:52:08;;;;;;;2.40;1.95;;;;;;;8.77;97.85;101173.44;4881946;29;20029;-90
2023/01/07 07:54:36;;;;;;;3.03;2.07;;;;;;;8.75;97.13;101167.41;4882137;29;20037;-90
2023/01/07 07:57:02;;;;;;;2.88;1.90;;;;;;;8.82;97.51;101166.53;4882731;29;20029;-90
2023/01/07 07:59:45;;;;;;;3.77;2.20;;;;;;;8.91;97.24;101163.91;4882228;29;20037;-90
2023/01/07 08:02:14;;;;;;;2.78;2.00;;;;;;;8.86;97.28;101167.38;4882485;29;20274;-90
2023/01/07 08:04:39;;;;;;;3.67;1.80;;;;;;;8.92;96.25;101157.00;4883651;29;20093;-96
2023/01/07 08:07:05;;;;;;;3.20;2.10;;;;;;;8.86;95.92;101160.47;4885263;29;20056;-96
2023/01/07 08:09:30;;;;;;;3.43;2.00;;;;;;;8.86;96.33;101155.28;4883552;29;20052;-93
2023/01/07 08:11:56;;;;;;;3.63;2.00;;;;;;;8.86;96.73;101152.69;4881809;29;20557;-95
2023/01/07 08:14:25;;;;;;;2.20;2.00;;;;;;;8.90;95.79;101146.66;4883784;29;20116;-94
2023/01/07 08:17:19;;;;;;;2.30;2.00;;;;;;;8.86;94.73;101151.84;4885623;29;20040;-96
2023/01/07 08:19:44;;;;;;;2.67;1.95;;;;;;;8.89;95.79;101157.03;4885975;29;20080;-96
2023/01/07 08:22:09;;;;;;;2.67;1.90;;;;;;;8.86;95.80;101146.66;4886574;29;20069;-96
2023/01/07 08:24:35;;;;;;;2.80;2.00;;;;;;;8.89;95.53;101155.28;4887899;29;20029;-96
2023/01/07 08:27:01;;;;;;;2.00;1.80;;;;;;;8.85;96.14;101139.78;4899047;29;20025;-96
2023/01/07 08:30:10;;;;;;;2.10;1.80;;;;;;;8.89;95.80;101151.84;4901106;29;20037;-96
2023/01/07 08:33:01;;;;;;;2.67;1.73;;;;;;;8.89;95.68;101141.50;4902631;29;20080;-96
2023/01/07 08:35:27;;;;;;;1.80;1.70;;;;;;;8.86;94.66;101131.16;4902100;29;20029;-96
2023/01/07 08:40:48;;;;;;;3.17;1.87;;;;;;;8.94;95.65;101132.84;4900441;29;20041;-96
2023/01/07 08:43:36;;;;;;;2.37;1.90;;;;;;;8.94;95.04;101145.78;4901902;29;20029;-96
2023/01/07 08:46:07;;;;;;;2.40;2.00;;;;;;;8.99;95.05;101132.81;4900700;29;20053;-96
2023/01/07 08:48:32;;;;;;;4.00;1.95;;;;;;;9.03;95.22;101136.25;4894609;29;20033;-92
2023/01/07 08:50:57;;;;;;;4.50;2.03;;;;;;;9.02;95.00;101135.38;4885714;29;20395;-95
2023/01/07 08:53:23;;;;;;;1.85;1.75;;;;;;;9.02;93.85;101132.78;4963646;23;20084;-93
2023/01/07 08:55:49;;;;;;;2.17;1.97;;;;;;;9.05;95.02;101137.97;4925530;29;20047;-92
2023/01/07 08:58:14;;;;;;;1.90;1.70;;;;;;;9.03;94.44;101129.34;4925814;29;20409;-93
2023/01/07 09:00:40;;;;;;;1.90;1.77;;;;;;;9.05;94.61;101126.75;4923285;29;20024;-93
2023/01/07 09:03:05;;;;;;;2.28;1.90;;;;;;;9.04;93.39;101131.06;4921648;29;20039;-93
2023/01/07 09:05:31;;;;;;;1.83;1.70;;;;;;;9.06;93.80;101131.91;4920253;29;20016;-96
2023/01/07 09:08:02;;;;;;;1.87;1.77;;;;;;;9.06;94.39;101123.31;4918528;29;20028;-94
2023/01/07 09:10:28;;;;;;;2.33;1.80;;;;;;;9.06;94.25;101113.78;4926258;29;20020;-94
2023/01/07 09:13:00;;;;;;;1.77;1.67;;;;;;;9.10;94.18;101112.94;4924279;29;20103;-96
2023/01/07 09:15:25;;;;;;;1.77;1.67;;;;;;;9.11;93.89;101108.59;4929253;23;20063;-93
2023/01/07 09:17:56;;;;;;;1.80;1.70;;;;;;;9.11;93.09;101108.59;4942486;29;20039;-93
2023/01/07 09:20:21;;;;;;;1.70;1.60;;;;;;;9.14;92.97;101106.00;4946085;29;20038;-93
2023/01/07 09:23:01;;;;;;;3.07;2.07;;;;;;;9.20;92.33;101105.09;4918005;29;20142;-94
2023/01/07 09:25:27;;;;;;;1.77;1.67;;;;;;;9.26;92.73;101097.28;4918861;29;20032;-93
2023/01/07 09:27:52;;;;;;;2.00;1.83;;;;;;;9.33;92.10;101101.59;4918587;29;20095;-94
2023/01/07 09:30:17;;;;;;;2.07;1.80;;;;;;;9.30;91.95;101091.22;4917828;29;20425;-94
2023/01/07 09:33:05;;;;;;;2.20;2.00;;;;;;;9.30;91.97;101098.13;4918067;29;20024;-93
2023/01/07 09:35:30;;;;;;;1.80;1.70;;;;;;;9.31;91.86;101097.25;4918233;29;20035;-93
2023/01/07 09:37:55;;;;;;;1.60;1.50;;;;;;;9.32;91.88;101091.22;4917350;29;20029;-93
2023/01/07 09:40:37;;;;;;;1.40;1.30;;;;;;;9.32;92.56;101084.31;4918309;29;20031;-94
2023/01/07 09:43:11;;;;;;;1.55;1.45;;;;;;;9.35;93.14;101071.31;4918054;29;20465;-93
2023/01/07 09:45:58;;;;;;;3.13;1.83;;;;;;;9.42;92.42;101077.31;4917630;29;20023;-93
2023/01/07 09:48:32;;;;;;;1.90;1.60;;;;;;;9.39;90.78;101065.25;4917868;29;20028;-92
2023/01/07 09:51:15;;;;;;;3.90;1.88;;;;;;;9.45;89.88;101068.69;4918057;29;20548;-92
2023/01/07 09:53:50;;;;;;;1.88;1.75;;;;;;;9.49;89.75;101067.78;4917992;29;20517;-93
2023/01/07 09:56:23;;;;;;;1.58;1.48;;;;;;;9.55;90.75;101058.25;4918812;29;20144;-92
2023/01/07 09:58:48;;;;;;;1.83;1.73;;;;;;;9.64;89.81;101065.09;4917565;29;20052;-93
2023/01/07 10:01:35;;;;;;;2.07;1.60;;;;;;;9.70;88.43;101059.84;4917348;29;20110;-93
2023/01/07 10:04:03;;;;;;;1.88;1.67;;;;;;;9.87;88.46;101056.25;4917328;29;20028;-93
2023/01/07 10:10:07;;;;;;;3.40;1.95;;;;;;;10.07;85.31;101037.06;4917296;29;20047;-92
2023/01/07 10:12:42;;;;;;;1.95;1.75;;;;;;;10.17;86.40;101042.16;4917542;29;20038;-93
2023/01/07 10:15:38;;;;;;;1.80;1.70;;;;;;;10.16;86.44;101027.47;4917560;29;20047;-93
2023/01/07 10:18:21;;;;;;;1.65;1.55;;;;;;;10.21;86.37;101017.03;4925661;23;20036;-92
2023/01/07 10:21:33;;;;;;;1.67;1.58;;;;;;;10.25;85.49;101013.50;4915913;29;20036;-92
2023/01/07 10:24:06;;;;;;;1.85;1.75;;;;;;;10.40;85.68;101011.66;4917551;29;20066;-92
2023/01/07 10:26:49;;;;;;;2.00;1.77;;;;;;;10.35;85.41;101001.31;4915961;29;20047;-94
2023/01/07 10:32:47;;;;;;;1.67;1.58;;;;;;;10.50;83.84;100992.50;4904858;29;20047;-92
2023/01/07 10:35:17;;;;;;;3.03;2.00;;;;;;;10.46;83.57;100986.50;4917142;29;20036;-93
2023/01/07 10:37:43;;;;;;;2.25;1.90;;;;;;;10.57;81.58;100965.63;4917609;29;20033;-92
2023/01/07 10:40:41;;;;;;;3.23;1.80;;;;;;;10.63;80.22;100967.25;4918790;29;20035;-90
2023/01/07 10:43:25;;;;;;;2.67;1.55;;;;;;;10.60;82.69;100972.50;4919502;29;20096;-92
2023/01/07 10:46:12;;;;;;;1.60;1.50;;;;;;;10.64;81.22;100956.84;4917401;29;20152;-93
2023/01/07 10:49:05;;;;;;;1.83;1.60;;;;;;;10.64;79.11;100951.66;4917754;29;20385;-92
2023/01/07 10:52:08;;;;;;;1.80;1.70;;;;;;;10.69;79.60;100941.22;4917669;29;20032;-91
2023/01/07 10:55:00;;;;;;;1.55;1.45;;;;;;;10.70;79.92;100937.75;4917098;29;20103;-93
2023/01/07 10:57:28;;;;;;;2.13;1.30;;;;;;;10.68;79.94;100934.31;4917079;29;20028;-92
2023/01/07 11:00:19;;;;;;;3.15;1.80;;;;;;;10.94;79.50;100933.91;4917153;29;20517;-92
2023/01/07 11:03:06;;;;;;;2.95;1.60;;;;;;;10.78;79.43;100929.84;4917525;29;20036;-92
2023/01/07 11:05:35;;;;;;;1.67;1.58;;;;;;;10.84;79.54;100915.91;4917087;29;20028;-92
2023/01/07 11:08:03;;;;;;;1.55;1.45;;;;;;;10.80;78.05;100907.31;4917303;29;20117;-92
2023/01/07 11:10:44;;;;;;;1.67;1.58;;;;;;;10.81;78.34;100911.59;4917041;29;20040;-92
2023/01/07 11:13:15;;;;;;;3.30;1.77;;;;;;;10.97;78.64;100922.63;4925145;23;20073;-91
2023/01/07 11:19:06;;;;;;;1.85;1.52;;;;;;;10.87;78.41;100915.84;4955848;23;20056;-92
2023/01/07 11:21:36;;;;;;;2.00;1.80;;;;;;;10.89;76.44;100906.28;4921165;29;20076;-92
2023/01/07 11:24:33;;;;;;;2.13;1.85;;;;;;;10.82;76.92;100903.81;4920827;29;20119;-91
2023/01/07 11:27:01;;;;;;;2.42;1.90;;;;;;;10.91;75.62;100895.03;4921250;29;20031;-94
2023/01/07 11:29:51;;;;;;;2.08;1.80;;;;;;;10.77;77.55;100889.19;4923924;29;20032;-91
2023/01/07 11:32:22;;;;;;;2.25;1.60;;;;;;;10.75;76.68;100877.97;4920878;29;20032;-91
2023/01/07 11:35:04;;;;;;;1.90;1.77;;;;;;;10.78;77.72;100876.16;4920633;29;20083;-92
2023/01/07 11:37:45;;;;;;;2.42;1.60;;;;;;;10.82;77.90;100866.59;4920570;29;20509;-93
2023/01/07 11:40:13;;;;;;;1.70;1.60;;;;;;;10.86;78.89;100865.66;4926996;23;20115;-92
2023/01/07 11:42:58;;;;;;;1.70;1.60;;;;;;;10.85;77.31;100856.16;4920754;29;20048;-92
2023/01/07 11:45:25;;;;;;;1.70;1.60;;;;;;;10.90;78.70;100856.09;4920749;29;20028;-93
2023/01/07 11:48:14;;;;;;;1.42;1.33;;;;;;;10.92;77.53;100842.19;4920805;29;20112;-93
2023/01/07 11:50:43;;;;;;;2.50;2.00;;;;;;;10.97;75.96;100848.19;4920514;29;20104;-93
2023/01/07 11:53:14;;;;;;;2.35;1.92;;;;;;;10.93;75.77;100843.06;4920254;29;20043;-92
2023/01/07 11:56:00;;;;;;;2.15;1.75;;;;;;;10.91;77.45;100830.13;4920655;29;20032;-91
2023/01/07 11:58:29;;;;;;;3.13;1.90;;;;;;;10.96;74.93;100830.88;4920428;29;20028;-92
2023/01/07 12:01:06;;;;;;;2.00;1.70;;;;;;;10.91;75.74;100822.31;4920474;29;20024;-91
2023/01/07 12:03:33;;;;;;;2.42;2.00;;;;;;;10.90;75.78;100820.63;4920083;29;20488;-91
2023/01/07 12:06:07;;;;;;;1.73;1.60;;;;;;;10.91;76.45;100816.25;4919771;29;20020;-91
2023/01/07 12:08:33;;;;;;;2.15;1.80;;;;;;;10.93;75.82;100810.16;4920359;29;20063;-92
2023/01/07 12:11:06;;;;;;;2.13;1.93;;;;;;;10.95;76.19;100805.78;4923418;29;20016;-91
2023/01/07 12:13:33;;;;;;;4.03;1.90;;;;;;;11.06;73.19;100805.63;4919970;29;20039;-91
2023/01/07 12:16:04;;;;;;;2.05;1.85;;;;;;;11.07;74.94;100796.06;4920012;29;20382;-93
2023/01/07 12:18:48;;;;;;;3.47;2.00;;;;;;;11.10;74.17;100796.88;4919844;29;20029;-89
2023/01/07 12:21:33;;;;;;;2.22;1.92;;;;;;;11.10;75.35;100783.88;4919976;29;20032;-88